createdAt,value
2019-01-27T00:00:39.764Z,6.90
2019-01-27T00:03:08.840Z,6.80
2019-01-27T00:05:37.975Z,6.90
2019-01-27T00:08:13.309Z,6.80
2019-01-27T00:10:37.989Z,6.80
2019-01-27T00:13:06.987Z,6.90
2019-01-27T00:15:36.285Z,6.90
2019-01-27T00:18:05.568Z,7.00
2019-01-27T00:20:34.545Z,6.90
2019-01-27T00:23:03.745Z,6.90
2019-01-27T00:25:32.721Z,7.00
2019-01-27T00:28:01.701Z,7.10
2019-01-27T00:30:30.729Z,7.10
2019-01-27T00:32:59.700Z,7.00
2019-01-27T00:35:28.937Z,7.10
2019-01-27T00:37:57.850Z,7.10
2019-01-27T00:40:26.904Z,7.10
2019-01-27T00:42:55.886Z,7.00
2019-01-27T00:45:24.841Z,7.10
2019-01-27T00:47:53.743Z,7.10
2019-01-27T00:50:22.803Z,7.10
2019-01-27T00:52:51.746Z,7.10
2019-01-27T00:55:20.928Z,7.00
2019-01-27T00:57:49.906Z,7.00
2019-01-27T01:00:21.660Z,7.00
2019-01-27T01:02:51.472Z,7.00
2019-01-27T01:05:20.457Z,7.00
2019-01-27T01:07:49.528Z,7.00
2019-01-27T01:10:19.576Z,7.10
2019-01-27T01:12:48.756Z,7.10
2019-01-27T01:15:18.237Z,7.10
2019-01-27T01:17:47.588Z,7.00
2019-01-27T01:20:18.313Z,7.10
2019-01-27T01:22:47.876Z,7.10
2019-01-27T01:25:21.741Z,7.10
2019-01-27T01:27:50.832Z,7.10
2019-01-27T01:30:22.507Z,7.20
2019-01-27T01:32:51.494Z,7.20
2019-01-27T01:35:20.573Z,7.30
2019-01-27T01:37:49.828Z,7.30
2019-01-27T01:40:19.197Z,7.20
2019-01-27T01:42:48.444Z,7.20
2019-01-27T01:45:26.185Z,7.20
2019-01-27T01:47:55.164Z,7.20
2019-01-27T01:50:24.245Z,7.30
2019-01-27T01:52:53.335Z,7.30
2019-01-27T01:55:22.394Z,7.30
2019-01-27T01:57:51.486Z,7.20
2019-01-27T02:00:21.965Z,7.30
2019-01-27T02:02:51.032Z,7.30
2019-01-27T02:05:20.416Z,7.30
2019-01-27T02:07:49.400Z,7.20
2019-01-27T02:10:19.890Z,7.20
2019-01-27T02:12:48.920Z,7.20
2019-01-27T02:15:41.533Z,7.20
2019-01-27T02:18:10.584Z,7.20
2019-01-27T02:20:39.564Z,7.30
2019-01-27T02:23:08.563Z,7.30
2019-01-27T02:25:37.535Z,7.30
2019-01-27T02:28:06.566Z,7.30
2019-01-27T02:30:35.552Z,7.30
2019-01-27T02:33:04.914Z,7.30
2019-01-27T02:35:33.898Z,7.30
2019-01-27T02:38:02.854Z,7.30
2019-01-27T02:40:31.824Z,7.30
2019-01-27T02:43:00.808Z,7.40
2019-01-27T02:45:29.889Z,7.40
2019-01-27T02:47:58.868Z,7.40
2019-01-27T02:50:27.788Z,7.40
2019-01-27T02:52:56.717Z,7.40
2019-01-27T02:55:25.626Z,7.40
2019-01-27T02:57:54.460Z,7.40
2019-01-27T03:00:23.557Z,7.40
2019-01-27T03:02:52.532Z,7.40
2019-01-27T03:05:38.673Z,7.40
2019-01-27T03:08:07.665Z,7.40
2019-01-27T03:10:36.685Z,7.40
2019-01-27T03:13:05.691Z,7.40
2019-01-27T03:15:34.665Z,7.50
2019-01-27T03:18:03.740Z,7.50
2019-01-27T03:20:32.819Z,7.40
2019-01-27T03:23:01.794Z,7.50
2019-01-27T03:25:30.771Z,7.60
2019-01-27T03:27:59.765Z,7.50
2019-01-27T03:30:28.742Z,7.50
2019-01-27T03:32:57.731Z,7.50
2019-01-27T03:35:26.862Z,7.40
2019-01-27T03:37:55.762Z,7.50
2019-01-27T03:40:24.821Z,7.50
2019-01-27T03:42:53.778Z,7.50
2019-01-27T03:45:22.762Z,7.50
2019-01-27T03:47:51.737Z,7.50
2019-01-27T03:50:20.914Z,7.50
2019-01-27T03:52:49.893Z,7.50
2019-01-27T03:55:19.240Z,7.50
2019-01-27T03:57:48.273Z,7.50
2019-01-27T04:00:19.137Z,7.50
2019-01-27T04:02:48.329Z,7.50
2019-01-27T04:05:17.434Z,7.50
2019-01-27T04:07:46.419Z,7.50
2019-01-27T04:10:17.373Z,7.50
2019-01-27T04:12:46.406Z,7.50
2019-01-27T04:15:15.918Z,7.50
2019-01-27T04:17:44.973Z,7.60
2019-01-27T04:20:16.006Z,7.60
2019-01-27T04:22:44.985Z,7.60
2019-01-27T04:25:15.213Z,7.60
2019-01-27T04:27:44.232Z,7.50
2019-01-27T04:30:16.741Z,7.60
2019-01-27T04:32:45.714Z,7.70
2019-01-27T04:35:14.724Z,7.60
2019-01-27T04:37:43.713Z,7.60
2019-01-27T04:40:15.517Z,7.60
2019-01-27T04:42:44.516Z,7.60
2019-01-27T04:45:14.669Z,7.50
2019-01-27T04:47:43.665Z,7.50
2019-01-27T04:50:13.308Z,7.50
2019-01-27T04:52:42.397Z,7.50
2019-01-27T04:55:12.634Z,7.50
2019-01-27T04:57:41.660Z,7.50
2019-01-27T05:00:14.417Z,7.40
2019-01-27T05:02:48.234Z,7.40
2019-01-27T05:05:17.214Z,7.40
2019-01-27T05:07:46.201Z,7.40
2019-01-27T05:10:15.244Z,7.40
2019-01-27T05:12:44.313Z,7.40
2019-01-27T05:15:14.321Z,7.40
2019-01-27T05:17:43.357Z,7.30
2019-01-27T05:20:12.472Z,7.30
2019-01-27T05:22:41.473Z,7.30
2019-01-27T05:25:11.449Z,7.20
2019-01-27T05:27:40.428Z,7.30
2019-01-27T05:30:13.686Z,7.30
2019-01-27T05:32:42.740Z,7.20
2019-01-27T05:35:11.874Z,7.30
2019-01-27T05:37:40.909Z,7.30
2019-01-27T05:40:11.121Z,7.30
2019-01-27T05:42:40.121Z,7.40
2019-01-27T05:45:11.825Z,7.30
2019-01-27T05:47:42.937Z,7.30
2019-01-27T05:50:14.005Z,7.20
2019-01-27T05:52:43.050Z,7.20
2019-01-27T05:55:13.562Z,7.30
2019-01-27T05:57:42.569Z,7.30
2019-01-27T06:00:15.181Z,7.30
2019-01-27T06:02:44.187Z,7.20
2019-01-27T06:05:13.233Z,7.30
2019-01-27T06:07:42.232Z,7.30
2019-01-27T06:10:11.857Z,7.30
2019-01-27T06:12:41.052Z,7.30
2019-01-27T06:15:11.436Z,7.30
2019-01-27T06:17:40.448Z,7.30
2019-01-27T06:20:11.233Z,7.20
2019-01-27T06:22:40.348Z,7.10
2019-01-27T06:25:11.494Z,7.20
2019-01-27T06:27:40.469Z,7.30
2019-01-27T06:30:15.931Z,7.30
2019-01-27T06:32:50.741Z,7.30
2019-01-27T06:35:19.833Z,7.30
2019-01-27T06:37:48.744Z,7.30
2019-01-27T06:40:17.725Z,7.30
2019-01-27T06:42:46.736Z,7.20
2019-01-27T06:45:15.741Z,7.20
2019-01-27T06:47:44.751Z,7.10
2019-01-27T06:50:13.980Z,7.20
2019-01-27T06:52:43.357Z,7.20
2019-01-27T06:55:13.742Z,7.20
2019-01-27T06:57:43.056Z,7.20
2019-01-27T07:00:28.084Z,7.20
2019-01-27T07:03:05.425Z,7.20
2019-01-27T07:05:46.912Z,7.20
2019-01-27T07:08:31.086Z,7.20
2019-01-27T07:11:18.143Z,7.30
2019-01-27T07:14:18.545Z,7.30
2019-01-27T07:17:06.475Z,7.30
2019-01-27T07:19:50.641Z,7.30
2019-01-27T07:22:42.150Z,7.30
2019-01-27T07:25:49.722Z,7.30
2019-01-27T07:28:44.756Z,7.30
2019-01-27T07:31:29.123Z,7.20
2019-01-27T07:34:18.577Z,7.20
2019-01-27T07:37:14.729Z,7.30
2019-01-27T07:40:16.098Z,7.30
2019-01-27T07:42:58.833Z,7.30
2019-01-27T07:45:47.751Z,7.30
2019-01-27T07:48:34.676Z,7.30
2019-01-27T07:51:28.508Z,7.30
2019-01-27T07:54:06.181Z,7.30
2019-01-27T07:56:52.932Z,7.40
2019-01-27T07:59:32.741Z,7.50
2019-01-27T08:02:15.891Z,7.40
2019-01-27T08:05:00.761Z,7.50
2019-01-27T08:07:47.393Z,7.50
2019-01-27T08:10:35.464Z,7.60
2019-01-27T08:13:20.930Z,7.50
2019-01-27T08:16:04.177Z,7.50
2019-01-27T08:18:48.513Z,7.60
2019-01-27T08:21:39.020Z,7.60
2019-01-27T08:24:42.442Z,7.70
2019-01-27T08:27:29.056Z,7.60
2019-01-27T08:30:23.172Z,7.60
2019-01-27T08:33:11.329Z,7.60
2019-01-27T08:35:54.162Z,7.70
2019-01-27T08:38:46.301Z,7.70
2019-01-27T08:41:42.727Z,7.70
2019-01-27T08:44:29.935Z,7.80
2019-01-27T08:47:01.489Z,7.80
2019-01-27T08:49:31.262Z,7.90
2019-01-27T08:52:00.358Z,7.90
2019-01-27T08:54:30.840Z,7.90
2019-01-27T08:56:59.760Z,8.00
2019-01-27T08:59:28.676Z,8.00
2019-01-27T09:02:15.480Z,8.10
2019-01-27T09:04:52.128Z,8.00
2019-01-27T09:07:39.085Z,8.10
2019-01-27T09:10:30.021Z,8.20
2019-01-27T09:13:17.051Z,8.20
2019-01-27T09:16:05.116Z,8.30
2019-01-27T09:18:54.628Z,8.30
2019-01-27T09:21:52.534Z,8.30
2019-01-27T09:24:30.352Z,8.40
2019-01-27T09:27:20.008Z,8.40
2019-01-27T09:29:54.308Z,8.40
2019-01-27T09:32:45.373Z,8.50
2019-01-27T09:35:31.509Z,8.50
2019-01-27T09:38:22.605Z,8.50
2019-01-27T09:41:28.525Z,8.60
2019-01-27T09:44:35.226Z,8.60
2019-01-27T09:47:35.276Z,8.70
2019-01-27T09:50:15.337Z,8.60
2019-01-27T09:53:02.340Z,8.70
2019-01-27T09:55:49.269Z,8.70
2019-01-27T09:58:27.278Z,8.70
2019-01-27T10:01:30.985Z,8.60
2019-01-27T10:04:17.534Z,8.70
2019-01-27T10:06:52.389Z,8.60
2019-01-27T10:09:39.504Z,8.70
2019-01-27T10:12:42.984Z,8.70
2019-01-27T10:15:30.764Z,8.70
2019-01-27T10:18:18.299Z,8.80
2019-01-27T10:21:00.292Z,8.80
2019-01-27T10:23:39.222Z,8.80
2019-01-27T10:26:28.371Z,8.90
2019-01-27T10:29:06.080Z,8.90
2019-01-27T10:31:50.747Z,9.00
2019-01-27T10:34:41.761Z,9.10
2019-01-27T10:37:34.286Z,9.20
2019-01-27T10:40:40.766Z,9.40
2019-01-27T10:43:14.672Z,9.60
2019-01-27T10:46:01.554Z,10.00
2019-01-27T10:48:46.841Z,10.60
2019-01-27T10:51:28.501Z,10.80
2019-01-27T10:54:12.376Z,11.20
2019-01-27T10:56:51.534Z,11.70
2019-01-27T10:59:26.229Z,11.80
2019-01-27T11:02:14.229Z,12.10
2019-01-27T11:05:01.307Z,11.90
2019-01-27T11:07:57.859Z,11.60
2019-01-27T11:10:33.583Z,11.60
2019-01-27T11:13:18.753Z,11.70
2019-01-27T11:16:11.316Z,11.70
2019-01-27T11:19:02.967Z,12.30
2019-01-27T11:21:48.399Z,12.50
2019-01-27T11:24:34.225Z,12.80
2019-01-27T11:27:33.112Z,13.20
2019-01-27T11:30:20.722Z,13.60
2019-01-27T11:33:00.454Z,13.80
2019-01-27T11:35:38.037Z,14.10
2019-01-27T11:38:35.430Z,13.70
2019-01-27T11:41:15.261Z,13.80
2019-01-27T11:43:59.312Z,13.60
2019-01-27T11:46:56.404Z,13.80
2019-01-27T11:49:40.560Z,14.20
2019-01-27T11:52:15.661Z,14.20
2019-01-27T11:54:44.834Z,13.60
2019-01-27T11:57:13.832Z,13.50
2019-01-27T11:59:42.848Z,13.00
2019-01-27T12:02:11.868Z,13.10
2019-01-27T12:04:40.773Z,13.10
2019-01-27T12:07:10.117Z,13.00
2019-01-27T12:09:39.115Z,12.80
2019-01-27T12:12:08.128Z,12.90
2019-01-27T12:14:37.055Z,12.70
2019-01-27T12:17:06.071Z,12.60
2019-01-27T12:19:35.080Z,12.30
2019-01-27T12:22:04.227Z,12.30
2019-01-27T12:24:33.387Z,12.10
2019-01-27T12:27:02.565Z,11.80
2019-01-27T12:29:31.493Z,11.80
2019-01-27T12:32:00.446Z,11.80
2019-01-27T12:34:29.368Z,11.60
2019-01-27T12:37:01.089Z,11.40
2019-01-27T12:39:30.013Z,11.50
2019-01-27T12:41:59.085Z,11.40
2019-01-27T12:44:28.020Z,11.20
2019-01-27T12:46:57.017Z,11.20
2019-01-27T12:49:26.022Z,10.80
2019-01-27T12:51:55.069Z,10.80
2019-01-27T12:54:24.238Z,10.90
2019-01-27T12:56:53.541Z,10.90
2019-01-27T12:59:22.896Z,10.90
2019-01-27T13:01:51.837Z,10.90
2019-01-27T13:04:20.827Z,10.90
2019-01-27T13:06:49.857Z,10.90
2019-01-27T13:09:18.721Z,10.80
2019-01-27T13:11:48.011Z,10.50
2019-01-27T13:14:18.054Z,10.60
2019-01-27T13:16:47.896Z,10.70
2019-01-27T13:19:16.880Z,10.70
2019-01-27T13:21:45.749Z,10.70
2019-01-27T13:24:14.679Z,10.60
2019-01-27T13:26:45.257Z,10.60
2019-01-27T13:29:14.557Z,10.60
2019-01-27T13:31:43.630Z,10.60
2019-01-27T13:34:12.631Z,10.70
2019-01-27T13:36:42.229Z,10.70
2019-01-27T13:39:11.246Z,10.60
2019-01-27T13:41:40.531Z,10.60
2019-01-27T13:44:09.552Z,10.50
2019-01-27T13:46:38.414Z,10.50
2019-01-27T13:49:07.332Z,10.30
2019-01-27T13:51:36.432Z,10.30
2019-01-27T13:54:05.542Z,10.20
2019-01-27T13:56:34.553Z,10.20
2019-01-27T13:59:03.886Z,10.10
2019-01-27T14:01:33.263Z,10.20
2019-01-27T14:04:02.182Z,10.10
2019-01-27T14:06:31.190Z,10.10
2019-01-27T14:09:00.193Z,10.00
2019-01-27T14:11:29.460Z,10.00
2019-01-27T14:13:58.645Z,9.90
2019-01-27T14:16:27.650Z,10.00
2019-01-27T14:18:57.357Z,10.00
2019-01-27T14:21:26.717Z,9.90
2019-01-27T14:23:55.654Z,10.00
2019-01-27T14:26:24.958Z,10.10
2019-01-27T14:28:54.074Z,10.10
2019-01-27T14:31:23.321Z,10.00
2019-01-27T14:33:52.337Z,10.00
2019-01-27T14:36:21.333Z,10.00
2019-01-27T14:38:50.352Z,10.00
2019-01-27T14:41:19.362Z,10.00
2019-01-27T14:43:49.023Z,9.90
2019-01-27T14:46:20.402Z,9.80
2019-01-27T14:48:49.718Z,9.70
2019-01-27T14:51:18.742Z,9.60
2019-01-27T14:53:48.987Z,9.50
2019-01-27T14:56:18.286Z,9.60
2019-01-27T14:58:47.360Z,9.60
2019-01-27T15:01:16.361Z,9.50
2019-01-27T15:03:45.370Z,9.50
2019-01-27T15:06:15.399Z,9.60
2019-01-27T15:08:46.053Z,9.50
2019-01-27T15:11:15.267Z,9.40
2019-01-27T15:13:44.277Z,9.30
2019-01-27T15:16:13.302Z,9.30
2019-01-27T15:18:42.299Z,9.20
2019-01-27T15:21:15.790Z,9.10
2019-01-27T15:23:44.803Z,9.20
2019-01-27T15:26:16.161Z,9.20
2019-01-27T15:28:45.939Z,9.00
2019-01-27T15:31:14.933Z,8.90
2019-01-27T15:33:44.391Z,9.00
2019-01-27T15:36:14.935Z,8.90
2019-01-27T15:38:43.918Z,8.90
2019-01-27T15:41:12.917Z,8.90
2019-01-27T15:43:48.383Z,8.90
2019-01-27T15:46:12.680Z,8.80
2019-01-27T15:48:44.317Z,8.70
2019-01-27T15:51:13.329Z,8.80
2019-01-27T15:53:42.335Z,8.70
2019-01-27T15:56:11.346Z,8.60
2019-01-27T15:58:40.668Z,8.60
2019-01-27T16:01:09.661Z,8.40
2019-01-27T16:03:40.689Z,8.50
2019-01-27T16:06:09.709Z,8.50
2019-01-27T16:08:39.300Z,8.50
2019-01-27T16:11:08.356Z,8.40
2019-01-27T16:13:38.982Z,8.30
2019-01-27T16:16:07.984Z,8.20
2019-01-27T16:18:39.311Z,8.30
2019-01-27T16:21:08.807Z,8.30
2019-01-27T16:23:47.022Z,8.30
2019-01-27T16:26:16.039Z,8.30
2019-01-27T16:28:44.986Z,8.30
2019-01-27T16:31:31.713Z,8.20
2019-01-27T16:34:05.885Z,8.00
2019-01-27T16:36:34.969Z,8.10
2019-01-27T16:39:06.685Z,7.90
2019-01-27T16:41:36.912Z,8.00
2019-01-27T16:44:06.061Z,7.90
2019-01-27T16:46:36.743Z,7.90
2019-01-27T16:49:06.990Z,7.90
2019-01-27T16:51:35.945Z,8.00
2019-01-27T16:54:05.362Z,8.00
2019-01-27T16:56:34.637Z,8.00
2019-01-27T16:59:03.631Z,8.00
2019-01-27T17:01:32.628Z,7.90
2019-01-27T17:04:02.010Z,7.90
2019-01-27T17:06:31.006Z,7.80
2019-01-27T17:09:00.001Z,7.90
2019-01-27T17:11:29.142Z,7.90
2019-01-27T17:13:58.818Z,7.90
2019-01-27T17:16:27.816Z,7.90
2019-01-27T17:18:58.301Z,7.80
2019-01-27T17:21:27.301Z,7.90
2019-01-27T17:23:56.871Z,7.90
2019-01-27T17:26:25.809Z,7.80
2019-01-27T17:28:54.788Z,7.80
2019-01-27T17:31:23.793Z,7.80
2019-01-27T17:33:53.216Z,7.80
2019-01-27T17:36:22.509Z,7.90
2019-01-27T17:38:51.455Z,7.80
2019-01-27T17:41:20.810Z,7.90
2019-01-27T17:43:49.809Z,7.70
2019-01-27T17:46:19.767Z,7.70
2019-01-27T17:48:48.728Z,7.70
2019-01-27T17:51:17.730Z,7.60
2019-01-27T17:53:59.733Z,7.70
2019-01-27T17:56:28.758Z,7.50
2019-01-27T17:59:11.214Z,7.60
2019-01-27T18:02:17.768Z,7.60
2019-01-27T18:05:18.127Z,7.60
2019-01-27T18:07:55.340Z,7.50
2019-01-27T18:10:31.363Z,7.50
2019-01-27T18:13:15.773Z,7.50
2019-01-27T18:15:46.622Z,7.50
2019-01-27T18:18:15.534Z,7.40
2019-01-27T18:20:44.448Z,7.40
2019-01-27T18:23:13.455Z,7.20
2019-01-27T18:25:42.467Z,7.30
2019-01-27T18:28:11.465Z,7.30
2019-01-27T18:30:41.295Z,7.30
2019-01-27T18:33:10.308Z,7.20
2019-01-27T18:35:39.540Z,7.20
2019-01-27T18:38:08.530Z,7.10
2019-01-27T18:40:37.543Z,7.20
2019-01-27T18:43:06.858Z,7.10
2019-01-27T18:45:37.927Z,7.00
2019-01-27T18:48:06.910Z,7.00
2019-01-27T18:50:36.810Z,6.80
2019-01-27T18:53:24.890Z,6.70
2019-01-27T18:56:06.323Z,6.70
2019-01-27T18:58:44.602Z,6.60
2019-01-27T19:01:28.153Z,6.50
2019-01-27T19:04:06.458Z,6.50
2019-01-27T19:06:52.894Z,6.40
2019-01-27T19:09:28.758Z,6.30
2019-01-27T19:12:14.327Z,6.30
2019-01-27T19:15:01.222Z,6.30
2019-01-27T19:17:43.809Z,6.20
2019-01-27T19:20:20.578Z,6.10
2019-01-27T19:23:16.984Z,6.10
2019-01-27T19:26:05.060Z,5.90
2019-01-27T19:28:49.957Z,6.00
2019-01-27T19:31:33.961Z,5.90
2019-01-27T19:34:12.121Z,5.80
2019-01-27T19:36:53.737Z,5.70
2019-01-27T19:39:51.181Z,5.70
2019-01-27T19:42:36.460Z,5.70
2019-01-27T19:45:24.663Z,5.60
2019-01-27T19:48:28.225Z,5.70
2019-01-27T19:51:08.550Z,5.70
2019-01-27T19:53:55.847Z,5.70
2019-01-27T19:56:44.116Z,5.70
2019-01-27T19:59:28.577Z,5.60
2019-01-27T20:02:13.656Z,5.50
2019-01-27T20:05:01.477Z,5.60
2019-01-27T20:07:48.867Z,5.50
2019-01-27T20:10:29.882Z,5.50
2019-01-27T20:13:17.365Z,5.40
2019-01-27T20:16:14.706Z,5.30
2019-01-27T20:19:12.326Z,5.10
2019-01-27T20:21:53.440Z,5.20
2019-01-27T20:24:29.349Z,5.20
2019-01-27T20:27:31.698Z,5.20
2019-01-27T20:30:10.412Z,5.10
2019-01-27T20:33:04.517Z,5.10
2019-01-27T20:36:02.283Z,5.00
2019-01-27T20:38:55.677Z,4.90
2019-01-27T20:41:39.709Z,4.90
2019-01-27T20:44:25.306Z,4.70
2019-01-27T20:47:07.372Z,4.70
2019-01-27T20:49:48.571Z,4.80
2019-01-27T20:52:37.114Z,4.60
2019-01-27T20:55:36.333Z,4.60
2019-01-27T20:58:17.886Z,4.60
2019-01-27T21:00:53.040Z,4.60
2019-01-27T21:03:31.872Z,4.50
2019-01-27T21:06:09.165Z,4.50
2019-01-27T21:08:57.160Z,4.50
2019-01-27T21:11:48.313Z,4.50
2019-01-27T21:14:43.407Z,4.40
2019-01-27T21:17:31.804Z,4.40
2019-01-27T21:20:05.241Z,4.50
2019-01-27T21:22:34.228Z,4.30
2019-01-27T21:25:04.389Z,4.30
2019-01-27T21:27:33.318Z,4.40
2019-01-27T21:30:02.328Z,4.40
2019-01-27T21:32:31.333Z,4.50
2019-01-27T21:35:00.437Z,4.40
2019-01-27T21:37:29.347Z,4.40
2019-01-27T21:39:58.666Z,4.40
2019-01-27T21:42:27.668Z,4.30
2019-01-27T21:44:56.522Z,4.30
2019-01-27T21:47:25.711Z,4.30
2019-01-27T21:49:54.706Z,4.30
2019-01-27T21:52:23.700Z,4.30
2019-01-27T21:54:52.700Z,4.30
2019-01-27T21:57:21.613Z,4.40
2019-01-27T21:59:50.638Z,4.30
2019-01-27T22:02:19.552Z,4.30
2019-01-27T22:04:48.544Z,4.30
2019-01-27T22:07:17.749Z,4.30
2019-01-27T22:09:47.256Z,4.30
2019-01-27T22:12:16.174Z,4.20
2019-01-27T22:14:45.154Z,4.20
2019-01-27T22:17:14.082Z,4.30
2019-01-27T22:19:43.321Z,4.30
2019-01-27T22:22:12.309Z,4.20
2019-01-27T22:24:41.362Z,4.20
2019-01-27T22:27:10.213Z,4.30
2019-01-27T22:29:39.159Z,4.30
2019-01-27T22:32:08.517Z,4.20
2019-01-27T22:34:37.687Z,4.20
2019-01-27T22:37:06.597Z,4.20
2019-01-27T22:39:35.624Z,4.20
2019-01-27T22:42:04.605Z,4.20
2019-01-27T22:44:33.519Z,4.20
2019-01-27T22:47:02.557Z,4.20
2019-01-27T22:49:31.397Z,4.20
2019-01-27T22:52:00.725Z,4.20
2019-01-27T22:54:29.650Z,4.20
2019-01-27T22:56:58.645Z,4.30
2019-01-27T22:59:27.673Z,4.20
2019-01-27T23:01:56.665Z,4.20
2019-01-27T23:04:25.644Z,4.10
2019-01-27T23:06:54.704Z,4.10
2019-01-27T23:09:23.634Z,4.20
2019-01-27T23:11:52.621Z,4.10
2019-01-27T23:14:21.525Z,4.20
2019-01-27T23:16:50.525Z,4.20
2019-01-27T23:19:19.369Z,4.20
2019-01-27T23:21:48.353Z,4.20
2019-01-27T23:24:17.369Z,4.20
2019-01-27T23:26:46.351Z,4.20
2019-01-27T23:29:15.263Z,4.20
2019-01-27T23:31:44.949Z,4.30
2019-01-27T23:34:13.884Z,4.30
2019-01-27T23:36:42.861Z,4.30
2019-01-27T23:39:11.857Z,4.20
2019-01-27T23:41:41.247Z,4.20
2019-01-27T23:44:10.090Z,4.20
2019-01-27T23:46:39.020Z,4.10
2019-01-27T23:49:08.018Z,4.20
2019-01-27T23:51:37.004Z,4.20
2019-01-27T23:54:06.043Z,4.20
2019-01-27T23:56:34.885Z,4.20
2019-01-27T23:59:04.177Z,4.20
